sensor_id;sensor_type;location;lat;lon;timestamp;pressure;altitude;pressure_sealevel;temperature;humidity
31595;BME280;18200;48.726;8.892;2023-11-19T00:00:54;96650.09;;;20.76;42.22
31595;BME280;18200;48.726;8.892;2023-11-19T00:04:54;96649.09;;;20.86;43.01
31595;BME280;18200;48.726;8.892;2023-11-19T00:08:54;96643.25;;;21.20;42.86
31595;BME280;18200;48.726;8.892;2023-11-19T00:12:55;96625.22;;;21.38;42.25
31595;BME280;18200;48.726;8.892;2023-11-19T00:16:57;96625.63;;;21.53;42.72
31595;BME280;18200;48.726;8.892;2023-11-19T00:20:57;96622.44;;;21.87;41.40
31595;BME280;18200;48.726;8.892;2023-11-19T00:24:58;96638.53;;;21.52;42.92
31595;BME280;18200;48.726;8.892;2023-11-19T00:28:58;96614.81;;;22.07;41.73
31595;BME280;18200;48.726;8.892;2023-11-19T00:32:59;96605.25;;;21.41;43.46
31595;BME280;18200;48.726;8.892;2023-11-19T00:37:00;96582.41;;;21.93;42.34
31595;BME280;18200;48.726;8.892;2023-11-19T00:41:00;96583.97;;;21.33;43.19
31595;BME280;18200;48.726;8.892;2023-11-19T00:45:02;96592.75;;;22.14;41.66
31595;BME280;18200;48.726;8.892;2023-11-19T00:49:03;96582.94;;;22.29;41.19
31595;BME280;18200;48.726;8.892;2023-11-19T00:53:03;96580.25;;;22.13;42.19
31595;BME280;18200;48.726;8.892;2023-11-19T00:57:04;96571.09;;;22.32;41.62
31595;BME280;18200;48.726;8.892;2023-11-19T01:01:06;96573.16;;;22.28;41.95
31595;BME280;18200;48.726;8.892;2023-11-19T01:05:08;96582.66;;;21.53;42.48
31595;BME280;18200;48.726;8.892;2023-11-19T01:09:08;96577.47;;;22.54;41.74
31595;BME280;18200;48.726;8.892;2023-11-19T01:13:09;96568.91;;;22.27;41.51
31595;BME280;18200;48.726;8.892;2023-11-19T01:17:10;96556.44;;;22.51;41.55
31595;BME280;18200;48.726;8.892;2023-11-19T01:21:11;96562.47;;;22.33;42.15
31595;BME280;18200;48.726;8.892;2023-11-19T01:25:12;96555.09;;;22.18;42.48
31595;BME280;18200;48.726;8.892;2023-11-19T01:29:13;96559.97;;;21.98;42.60
31595;BME280;18200;48.726;8.892;2023-11-19T01:33:16;96553.94;;;22.82;41.45
31595;BME280;18200;48.726;8.892;2023-11-19T01:37:17;96559.03;;;22.17;42.89
31595;BME280;18200;48.726;8.892;2023-11-19T01:41:17;96565.66;;;22.82;41.55
31595;BME280;18200;48.726;8.892;2023-11-19T01:45:28;96550.31;;;22.97;41.09
31595;BME280;18200;48.726;8.892;2023-11-19T01:49:30;96552.41;;;23.28;40.47
31595;BME280;18200;48.726;8.892;2023-11-19T01:53:33;96546.84;;;22.59;42.46
31595;BME280;18200;48.726;8.892;2023-11-19T01:57:35;96546.25;;;22.39;42.64
31595;BME280;18200;48.726;8.892;2023-11-19T02:01:37;96537.63;;;22.78;41.45
31595;BME280;18200;48.726;8.892;2023-11-19T02:05:39;96553.94;;;22.57;42.28
31595;BME280;18200;48.726;8.892;2023-11-19T02:09:43;96543.84;;;22.66;42.26
31595;BME280;18200;48.726;8.892;2023-11-19T02:13:44;96542.53;;;22.83;41.94
31595;BME280;18200;48.726;8.892;2023-11-19T02:17:44;96536.63;;;22.85;41.94
31595;BME280;18200;48.726;8.892;2023-11-19T02:21:45;96530.06;;;22.57;42.36
31595;BME280;18200;48.726;8.892;2023-11-19T02:30:17;96527.63;;;22.34;43.11
31595;BME280;18200;48.726;8.892;2023-11-19T02:34:18;96524.25;;;22.80;42.45
31595;BME280;18200;48.726;8.892;2023-11-19T02:38:18;96535.31;;;22.77;42.48
31595;BME280;18200;48.726;8.892;2023-11-19T02:42:18;96523.81;;;22.19;43.80
31595;BME280;18200;48.726;8.892;2023-11-19T02:46:19;96545.22;;;23.34;41.19
31595;BME280;18200;48.726;8.892;2023-11-19T02:50:20;96533.97;;;22.81;42.28
31595;BME280;18200;48.726;8.892;2023-11-19T02:54:25;96519.84;;;22.20;43.80
31595;BME280;18200;48.726;8.892;2023-11-19T02:58:27;96520.06;;;22.13;43.92
31595;BME280;18200;48.726;8.892;2023-11-19T03:02:28;96535.53;;;23.29;42.02
31595;BME280;18200;48.726;8.892;2023-11-19T03:06:34;96535.00;;;23.56;40.93
31595;BME280;18200;48.726;8.892;2023-11-19T03:10:34;96547.88;;;22.49;43.85
31595;BME280;18200;48.726;8.892;2023-11-19T03:14:34;96541.75;;;22.45;43.11
31595;BME280;18200;48.726;8.892;2023-11-19T03:18:35;96531.91;;;22.85;42.82
31595;BME280;18200;48.726;8.892;2023-11-19T03:22:38;96518.63;;;22.96;42.13
31595;BME280;18200;48.726;8.892;2023-11-19T03:26:39;96525.25;;;23.21;42.12
31595;BME280;18200;48.726;8.892;2023-11-19T03:30:39;96530.81;;;22.70;43.46
31595;BME280;18200;48.726;8.892;2023-11-19T03:34:39;96530.03;;;23.42;41.70
31595;BME280;18200;48.726;8.892;2023-11-19T03:38:40;96520.16;;;22.97;42.97
31595;BME280;18200;48.726;8.892;2023-11-19T03:42:42;96527.63;;;23.44;41.43
31595;BME280;18200;48.726;8.892;2023-11-19T03:46:44;96522.91;;;22.22;44.91
31595;BME280;18200;48.726;8.892;2023-11-19T03:50:44;96508.56;;;22.68;43.16
31595;BME280;18200;48.726;8.892;2023-11-19T03:54:45;96512.13;;;23.50;41.82
31595;BME280;18200;48.726;8.892;2023-11-19T03:58:45;96502.44;;;22.26;44.36
31595;BME280;18200;48.726;8.892;2023-11-19T04:02:46;96499.31;;;23.47;41.61
31595;BME280;18200;48.726;8.892;2023-11-19T04:06:47;96507.19;;;23.45;42.02
31595;BME280;18200;48.726;8.892;2023-11-19T04:10:47;96522.13;;;23.44;42.09
31595;BME280;18200;48.726;8.892;2023-11-19T04:14:48;96533.69;;;24.04;40.81
31595;BME280;18200;48.726;8.892;2023-11-19T04:18:48;96524.53;;;24.28;40.00
31595;BME280;18200;48.726;8.892;2023-11-19T04:22:50;96524.41;;;24.32;39.77
31595;BME280;18200;48.726;8.892;2023-11-19T04:26:51;96524.38;;;23.58;41.59
31595;BME280;18200;48.726;8.892;2023-11-19T04:30:52;96542.16;;;23.97;40.83
31595;BME280;18200;48.726;8.892;2023-11-19T04:34:53;96545.31;;;23.17;42.30
31595;BME280;18200;48.726;8.892;2023-11-19T04:38:53;96545.72;;;23.29;43.04
31595;BME280;18200;48.726;8.892;2023-11-19T04:42:53;96541.66;;;23.89;41.58
31595;BME280;18200;48.726;8.892;2023-11-19T04:46:54;96540.75;;;23.92;41.59
31595;BME280;18200;48.726;8.892;2023-11-19T04:50:54;96541.91;;;23.82;41.69
31595;BME280;18200;48.726;8.892;2023-11-19T04:54:55;96536.22;;;23.98;41.55
31595;BME280;18200;48.726;8.892;2023-11-19T04:58:55;96539.75;;;24.20;40.69
31595;BME280;18200;48.726;8.892;2023-11-19T05:02:55;96543.34;;;24.08;41.01
31595;BME280;18200;48.726;8.892;2023-11-19T05:06:56;96530.75;;;23.55;42.87
31595;BME280;18200;48.726;8.892;2023-11-19T05:10:56;96531.81;;;23.79;41.75
31595;BME280;18200;48.726;8.892;2023-11-19T05:14:57;96512.34;;;24.38;40.55
31595;BME280;18200;48.726;8.892;2023-11-19T05:18:58;96516.69;;;24.48;40.54
31595;BME280;18200;48.726;8.892;2023-11-19T05:22:58;96538.97;;;23.98;41.76
31595;BME280;18200;48.726;8.892;2023-11-19T05:27:00;96529.16;;;23.88;41.62
31595;BME280;18200;48.726;8.892;2023-11-19T05:31:00;96535.63;;;23.26;43.41
31595;BME280;18200;48.726;8.892;2023-11-19T05:35:01;96532.59;;;23.58;42.68
31595;BME280;18200;48.726;8.892;2023-11-19T05:39:02;96533.63;;;23.73;42.04
31595;BME280;18200;48.726;8.892;2023-11-19T05:43:05;96531.44;;;24.11;41.43
31595;BME280;18200;48.726;8.892;2023-11-19T05:47:05;96531.03;;;24.00;41.92
31595;BME280;18200;48.726;8.892;2023-11-19T05:51:07;96536.03;;;23.71;42.58
31595;BME280;18200;48.726;8.892;2023-11-19T05:55:07;96545.66;;;24.40;40.73
31595;BME280;18200;48.726;8.892;2023-11-19T05:59:10;96539.28;;;24.22;41.16
31595;BME280;18200;48.726;8.892;2023-11-19T06:03:15;96530.06;;;24.37;40.74
31595;BME280;18200;48.726;8.892;2023-11-19T06:07:15;96530.78;;;24.29;41.30
31595;BME280;18200;48.726;8.892;2023-11-19T06:11:16;96543.75;;;24.59;40.71
31595;BME280;18200;48.726;8.892;2023-11-19T06:15:18;96542.97;;;24.58;41.10
31595;BME280;18200;48.726;8.892;2023-11-19T06:19:18;96539.34;;;24.71;40.66
31595;BME280;18200;48.726;8.892;2023-11-19T06:23:19;96534.97;;;24.12;41.78
31595;BME280;18200;48.726;8.892;2023-11-19T06:27:20;96535.75;;;24.83;40.29
31595;BME280;18200;48.726;8.892;2023-11-19T06:31:21;96538.72;;;24.66;41.05
31595;BME280;18200;48.726;8.892;2023-11-19T06:35:22;96542.66;;;24.87;40.61
31595;BME280;18200;48.726;8.892;2023-11-19T06:39:22;96551.97;;;24.28;41.59
31595;BME280;18200;48.726;8.892;2023-11-19T06:43:23;96536.16;;;24.11;41.93
31595;BME280;18200;48.726;8.892;2023-11-19T06:47:27;96537.72;;;24.42;41.14
31595;BME280;18200;48.726;8.892;2023-11-19T06:51:27;96547.75;;;24.36;41.58
31595;BME280;18200;48.726;8.892;2023-11-19T06:55:30;96527.06;;;24.53;41.20
31595;BME280;18200;48.726;8.892;2023-11-19T06:59:31;96551.78;;;24.53;40.95
31595;BME280;18200;48.726;8.892;2023-11-19T07:03:31;96550.28;;;24.52;41.05
31595;BME280;18200;48.726;8.892;2023-11-19T07:07:32;96539.72;;;24.82;40.43
31595;BME280;18200;48.726;8.892;2023-11-19T07:11:37;96526.34;;;25.02;39.45
31595;BME280;18200;48.726;8.892;2023-11-19T07:15:38;96541.03;;;25.17;39.77
31595;BME280;18200;48.726;8.892;2023-11-19T07:19:39;96541.97;;;25.23;39.12
31595;BME280;18200;48.726;8.892;2023-11-19T07:23:39;96551.72;;;25.24;39.47
31595;BME280;18200;48.726;8.892;2023-11-19T07:27:39;96560.19;;;24.81;40.25
31595;BME280;18200;48.726;8.892;2023-11-19T07:31:40;96571.84;;;24.63;40.36
31595;BME280;18200;48.726;8.892;2023-11-19T07:35:40;96577.81;;;24.71;40.65
31595;BME280;18200;48.726;8.892;2023-11-19T07:39:42;96579.94;;;24.97;39.94
31595;BME280;18200;48.726;8.892;2023-11-19T07:43:43;96590.78;;;25.01;39.87
31595;BME280;18200;48.726;8.892;2023-11-19T07:47:44;96585.22;;;24.83;40.96
31595;BME280;18200;48.726;8.892;2023-11-19T07:51:44;96584.38;;;25.04;40.26
31595;BME280;18200;48.726;8.892;2023-11-19T07:55:45;96584.03;;;24.93;40.32
31595;BME280;18200;48.726;8.892;2023-11-19T07:59:46;96587.78;;;25.17;39.47
31595;BME280;18200;48.726;8.892;2023-11-19T08:03:47;96602.31;;;24.78;40.23
31595;BME280;18200;48.726;8.892;2023-11-19T08:07:47;96590.03;;;25.09;39.80
31595;BME280;18200;48.726;8.892;2023-11-19T08:11:47;96588.09;;;25.37;39.06
31595;BME280;18200;48.726;8.892;2023-11-19T08:15:48;96589.44;;;25.14;39.50
31595;BME280;18200;48.726;8.892;2023-11-19T08:19:48;96573.44;;;25.40;39.43
31595;BME280;18200;48.726;8.892;2023-11-19T08:23:49;96586.84;;;25.20;39.70
31595;BME280;18200;48.726;8.892;2023-11-19T08:27:49;96594.56;;;25.43;39.45
31595;BME280;18200;48.726;8.892;2023-11-19T08:31:49;96608.81;;;25.02;40.25
31595;BME280;18200;48.726;8.892;2023-11-19T08:35:50;96610.00;;;25.50;39.11
31595;BME280;18200;48.726;8.892;2023-11-19T08:39:50;96607.16;;;25.13;40.56
31595;BME280;18200;48.726;8.892;2023-11-19T08:43:51;96601.56;;;25.35;40.00
31595;BME280;18200;48.726;8.892;2023-11-19T08:47:51;96596.09;;;25.44;40.41
31595;BME280;18200;48.726;8.892;2023-11-19T08:51:52;96599.00;;;25.50;39.63
31595;BME280;18200;48.726;8.892;2023-11-19T08:55:52;96602.81;;;26.43;37.96
31595;BME280;18200;48.726;8.892;2023-11-19T08:59:53;96608.84;;;26.65;37.68
31595;BME280;18200;48.726;8.892;2023-11-19T09:03:53;96611.91;;;26.67;37.81
31595;BME280;18200;48.726;8.892;2023-11-19T09:07:53;96615.69;;;26.00;38.04
31595;BME280;18200;48.726;8.892;2023-11-19T09:11:54;96606.38;;;26.85;37.06
31595;BME280;18200;48.726;8.892;2023-11-19T09:15:54;96601.06;;;26.63;37.18
31595;BME280;18200;48.726;8.892;2023-11-19T09:19:57;96592.50;;;26.61;37.36
31595;BME280;18200;48.726;8.892;2023-11-19T09:23:57;96610.16;;;26.37;38.73
31595;BME280;18200;48.726;8.892;2023-11-19T09:27:58;96623.25;;;26.78;37.01
31595;BME280;18200;48.726;8.892;2023-11-19T09:31:58;96612.66;;;27.18;36.01
31595;BME280;18200;48.726;8.892;2023-11-19T09:35:58;96625.28;;;27.01;36.45
31595;BME280;18200;48.726;8.892;2023-11-19T09:39:59;96620.19;;;26.58;37.03
31595;BME280;18200;48.726;8.892;2023-11-19T09:43:59;96612.91;;;26.46;37.85
31595;BME280;18200;48.726;8.892;2023-11-19T09:48:00;96614.19;;;27.19;37.06
31595;BME280;18200;48.726;8.892;2023-11-19T09:52:01;96597.84;;;27.30;35.63
31595;BME280;18200;48.726;8.892;2023-11-19T09:56:04;96616.38;;;27.62;34.93
31595;BME280;18200;48.726;8.892;2023-11-19T10:00:05;96612.03;;;26.12;37.60
31595;BME280;18200;48.726;8.892;2023-11-19T10:04:06;96601.59;;;26.35;37.41
31595;BME280;18200;48.726;8.892;2023-11-19T10:08:07;96592.84;;;26.45;36.87
31595;BME280;18200;48.726;8.892;2023-11-19T10:12:11;96600.72;;;24.67;38.95
31595;BME280;18200;48.726;8.892;2023-11-19T10:16:15;96601.31;;;25.02;38.47
31595;BME280;18200;48.726;8.892;2023-11-19T10:20:15;96590.09;;;25.36;38.23
31595;BME280;18200;48.726;8.892;2023-11-19T10:24:15;96580.22;;;25.84;36.79
31595;BME280;18200;48.726;8.892;2023-11-19T10:28:16;96577.00;;;24.30;39.55
31595;BME280;18200;48.726;8.892;2023-11-19T10:32:16;96591.69;;;24.36;39.47
31595;BME280;18200;48.726;8.892;2023-11-19T10:36:17;96592.00;;;25.00;38.95
31595;BME280;18200;48.726;8.892;2023-11-19T10:40:17;96575.47;;;25.49;37.74
31595;BME280;18200;48.726;8.892;2023-11-19T10:44:34;96576.94;;;25.22;37.56
31595;BME280;18200;48.726;8.892;2023-11-19T10:48:36;96565.16;;;24.73;38.17
31595;BME280;18200;48.726;8.892;2023-11-19T10:52:36;96570.94;;;23.70;40.07
31595;BME280;18200;48.726;8.892;2023-11-19T10:56:40;96563.69;;;26.21;36.37
31595;BME280;18200;48.726;8.892;2023-11-19T11:04:47;96544.28;;;25.79;36.07
31595;BME280;18200;48.726;8.892;2023-11-19T11:08:47;96553.47;;;26.54;33.90
31595;BME280;18200;48.726;8.892;2023-11-19T11:12:49;96552.38;;;25.73;36.00
31595;BME280;18200;48.726;8.892;2023-11-19T11:16:53;96565.03;;;25.34;36.27
31595;BME280;18200;48.726;8.892;2023-11-19T11:20:59;96573.75;;;24.53;37.45
31595;BME280;18200;48.726;8.892;2023-11-19T11:26:18;96581.81;;;23.74;38.79
31595;BME280;18200;48.726;8.892;2023-11-19T11:30:10;96576.66;;;26.29;34.89
31595;BME280;18200;48.726;8.892;2023-11-19T11:34:31;96573.16;;;25.47;36.23
31595;BME280;18200;48.726;8.892;2023-11-19T11:38:37;96594.72;;;24.29;37.72
31595;BME280;18200;48.726;8.892;2023-11-19T11:42:40;96568.28;;;24.01;38.57
31595;BME280;18200;48.726;8.892;2023-11-19T11:50:54;96557.66;;;24.64;37.41
31595;BME280;18200;48.726;8.892;2023-11-19T11:55:04;96564.94;;;26.10;35.52
31595;BME280;18200;48.726;8.892;2023-11-19T11:59:18;96544.44;;;25.66;35.45
31595;BME280;18200;48.726;8.892;2023-11-19T12:03:21;96559.91;;;26.51;34.38
31595;BME280;18200;48.726;8.892;2023-11-19T12:07:23;96566.31;;;26.15;33.60
31595;BME280;18200;48.726;8.892;2023-11-19T12:11:24;96549.53;;;26.87;33.02
31595;BME280;18200;48.726;8.892;2023-11-19T12:15:27;96548.81;;;26.36;33.28
31595;BME280;18200;48.726;8.892;2023-11-19T12:19:29;96556.38;;;26.08;32.89
31595;BME280;18200;48.726;8.892;2023-11-19T12:23:29;96547.50;;;25.77;33.36
31595;BME280;18200;48.726;8.892;2023-11-19T12:27:30;96535.22;;;26.05;32.23
31595;BME280;18200;48.726;8.892;2023-11-19T12:31:30;96566.13;;;24.48;35.10
31595;BME280;18200;48.726;8.892;2023-11-19T12:35:31;96542.56;;;24.69;34.66
31595;BME280;18200;48.726;8.892;2023-11-19T12:39:31;96551.22;;;24.89;33.72
31595;BME280;18200;48.726;8.892;2023-11-19T12:43:32;96528.84;;;25.63;33.67
31595;BME280;18200;48.726;8.892;2023-11-19T12:47:34;96540.91;;;27.18;30.74
31595;BME280;18200;48.726;8.892;2023-11-19T12:51:34;96531.63;;;24.47;33.61
31595;BME280;18200;48.726;8.892;2023-11-19T12:55:35;96517.81;;;26.08;30.89
31595;BME280;18200;48.726;8.892;2023-11-19T12:59:35;96539.22;;;25.77;31.97
31595;BME280;18200;48.726;8.892;2023-11-19T13:03:36;96503.56;;;26.10;31.26
31595;BME280;18200;48.726;8.892;2023-11-19T13:07:38;96523.66;;;25.65;32.14
31595;BME280;18200;48.726;8.892;2023-11-19T13:11:39;96521.25;;;26.69;30.54
31595;BME280;18200;48.726;8.892;2023-11-19T13:15:41;96512.31;;;26.08;31.45
31595;BME280;18200;48.726;8.892;2023-11-19T13:19:41;96513.19;;;26.05;31.66
31595;BME280;18200;48.726;8.892;2023-11-19T13:23:41;96511.75;;;27.64;29.43
31595;BME280;18200;48.726;8.892;2023-11-19T13:27:45;96526.03;;;26.17;31.22
31595;BME280;18200;48.726;8.892;2023-11-19T13:31:46;96518.28;;;24.67;32.86
31595;BME280;18200;48.726;8.892;2023-11-19T13:35:46;96520.53;;;24.60;34.04
31595;BME280;18200;48.726;8.892;2023-11-19T13:39:47;96496.16;;;24.71;33.78
31595;BME280;18200;48.726;8.892;2023-11-19T13:43:47;96502.78;;;26.00;31.46
31595;BME280;18200;48.726;8.892;2023-11-19T13:47:47;96500.25;;;26.39;30.91
31595;BME280;18200;48.726;8.892;2023-11-19T13:51:48;96505.94;;;25.57;31.72
31595;BME280;18200;48.726;8.892;2023-11-19T13:55:48;96499.50;;;25.60;31.78
31595;BME280;18200;48.726;8.892;2023-11-19T13:59:49;96490.91;;;25.22;31.56
31595;BME280;18200;48.726;8.892;2023-11-19T14:03:49;96483.75;;;26.62;30.44
31595;BME280;18200;48.726;8.892;2023-11-19T14:07:50;96494.78;;;26.30;30.42
31595;BME280;18200;48.726;8.892;2023-11-19T14:11:51;96490.69;;;28.05;28.96
31595;BME280;18200;48.726;8.892;2023-11-19T14:15:52;96488.19;;;27.93;28.84
31595;BME280;18200;48.726;8.892;2023-11-19T14:19:52;96488.78;;;25.35;31.77
31595;BME280;18200;48.726;8.892;2023-11-19T14:23:53;96487.81;;;27.09;29.87
31595;BME280;18200;48.726;8.892;2023-11-19T14:27:53;96496.16;;;27.47;29.63
31595;BME280;18200;48.726;8.892;2023-11-19T14:31:53;96487.97;;;27.82;29.07
31595;BME280;18200;48.726;8.892;2023-11-19T14:35:54;96475.31;;;25.91;31.48
31595;BME280;18200;48.726;8.892;2023-11-19T14:39:54;96495.19;;;24.16;33.62
31595;BME280;18200;48.726;8.892;2023-11-19T14:43:54;96507.03;;;24.04;34.27
31595;BME280;18200;48.726;8.892;2023-11-19T14:47:55;96503.69;;;24.80;32.79
31595;BME280;18200;48.726;8.892;2023-11-19T14:51:55;96490.81;;;24.67;32.94
31595;BME280;18200;48.726;8.892;2023-11-19T14:55:56;96516.41;;;23.51;34.50
31595;BME280;18200;48.726;8.892;2023-11-19T14:59:56;96500.72;;;25.68;31.69
31595;BME280;18200;48.726;8.892;2023-11-19T15:03:57;96509.72;;;25.23;32.03
31595;BME280;18200;48.726;8.892;2023-11-19T15:07:57;96498.97;;;26.16;31.43
31595;BME280;18200;48.726;8.892;2023-11-19T15:11:57;96504.66;;;25.04;32.62
31595;BME280;18200;48.726;8.892;2023-11-19T15:15:59;96496.88;;;25.20;32.50
31595;BME280;18200;48.726;8.892;2023-11-19T15:19:59;96503.19;;;25.57;31.90
31595;BME280;18200;48.726;8.892;2023-11-19T15:24:01;96512.44;;;23.73;34.38
31595;BME280;18200;48.726;8.892;2023-11-19T15:28:04;96516.78;;;24.05;34.00
31595;BME280;18200;48.726;8.892;2023-11-19T15:32:05;96511.16;;;23.87;34.88
31595;BME280;18200;48.726;8.892;2023-11-19T15:36:07;96491.03;;;25.00;32.91
31595;BME280;18200;48.726;8.892;2023-11-19T15:40:08;96488.84;;;24.68;33.46
31595;BME280;18200;48.726;8.892;2023-11-19T15:44:09;96483.19;;;24.72;33.08
31595;BME280;18200;48.726;8.892;2023-11-19T15:48:10;96487.25;;;25.16;32.60
31595;BME280;18200;48.726;8.892;2023-11-19T15:52:14;96493.16;;;24.47;33.92
31595;BME280;18200;48.726;8.892;2023-11-19T15:56:15;96478.09;;;24.52;33.37
31595;BME280;18200;48.726;8.892;2023-11-19T16:00:16;96485.91;;;22.80;36.44
31595;BME280;18200;48.726;8.892;2023-11-19T16:04:17;96494.31;;;23.76;35.46
31595;BME280;18200;48.726;8.892;2023-11-19T16:08:17;96497.78;;;24.50;33.96
31595;BME280;18200;48.726;8.892;2023-11-19T16:12:17;96492.00;;;25.33;32.54
31595;BME280;18200;48.726;8.892;2023-11-19T16:16:18;96483.63;;;25.46;32.17
31595;BME280;18200;48.726;8.892;2023-11-19T16:20:18;96508.59;;;23.92;34.10
31595;BME280;18200;48.726;8.892;2023-11-19T16:24:19;96494.19;;;24.32;34.14
31595;BME280;18200;48.726;8.892;2023-11-19T16:28:19;96511.97;;;25.07;32.97
31595;BME280;18200;48.726;8.892;2023-11-19T16:32:19;96502.78;;;22.41;37.25
31595;BME280;18200;48.726;8.892;2023-11-19T16:36:20;96504.31;;;24.13;34.24
31595;BME280;18200;48.726;8.892;2023-11-19T16:40:21;96505.41;;;24.55;33.90
31595;BME280;18200;48.726;8.892;2023-11-19T16:44:21;96517.03;;;24.59;33.83
31595;BME280;18200;48.726;8.892;2023-11-19T16:48:22;96520.03;;;23.91;34.64
31595;BME280;18200;48.726;8.892;2023-11-19T16:52:22;96521.25;;;23.68;35.66
31595;BME280;18200;48.726;8.892;2023-11-19T16:56:23;96505.25;;;24.19;34.56
31595;BME280;18200;48.726;8.892;2023-11-19T17:00:24;96513.75;;;24.43;33.80
31595;BME280;18200;48.726;8.892;2023-11-19T17:04:25;96514.06;;;24.76;33.60
31595;BME280;18200;48.726;8.892;2023-11-19T17:08:27;96522.16;;;24.79;33.20
31595;BME280;18200;48.726;8.892;2023-11-19T17:12:29;96526.00;;;24.91;33.07
31595;BME280;18200;48.726;8.892;2023-11-19T17:16:30;96539.44;;;24.49;33.79
31595;BME280;18200;48.726;8.892;2023-11-19T17:20:30;96555.69;;;25.14;32.85
31595;BME280;18200;48.726;8.892;2023-11-19T17:24:31;96572.88;;;23.01;35.68
31595;BME280;18200;48.726;8.892;2023-11-19T17:28:31;96573.56;;;24.17;33.61
31595;BME280;18200;48.726;8.892;2023-11-19T17:32:34;96558.91;;;23.34;35.36
31595;BME280;18200;48.726;8.892;2023-11-19T17:36:35;96545.38;;;24.47;33.29
31595;BME280;18200;48.726;8.892;2023-11-19T17:40:35;96547.63;;;24.40;32.92
31595;BME280;18200;48.726;8.892;2023-11-19T17:44:36;96559.19;;;24.35;33.67
31595;BME280;18200;48.726;8.892;2023-11-19T17:48:36;96558.09;;;24.32;33.76
31595;BME280;18200;48.726;8.892;2023-11-19T17:52:37;96548.53;;;22.53;36.55
31595;BME280;18200;48.726;8.892;2023-11-19T17:56:37;96546.50;;;23.42;34.75
31595;BME280;18200;48.726;8.892;2023-11-19T18:00:39;96552.78;;;24.07;33.88
31595;BME280;18200;48.726;8.892;2023-11-19T18:04:40;96556.63;;;23.54;34.51
31595;BME280;18200;48.726;8.892;2023-11-19T18:08:40;96553.72;;;23.70;34.41
31595;BME280;18200;48.726;8.892;2023-11-19T18:12:40;96549.72;;;24.05;34.05
31595;BME280;18200;48.726;8.892;2023-11-19T18:16:41;96541.38;;;23.96;34.28
31595;BME280;18200;48.726;8.892;2023-11-19T18:20:43;96559.41;;;23.97;34.08
31595;BME280;18200;48.726;8.892;2023-11-19T18:24:44;96567.16;;;24.42;33.59
31595;BME280;18200;48.726;8.892;2023-11-19T18:28:44;96570.84;;;23.40;35.25
31595;BME280;18200;48.726;8.892;2023-11-19T18:32:47;96572.50;;;24.45;33.33
31595;BME280;18200;48.726;8.892;2023-11-19T18:36:47;96573.69;;;23.92;34.58
31595;BME280;18200;48.726;8.892;2023-11-19T18:40:48;96575.44;;;23.43;35.21
31595;BME280;18200;48.726;8.892;2023-11-19T18:44:48;96563.38;;;23.28;35.32
31595;BME280;18200;48.726;8.892;2023-11-19T18:48:48;96557.75;;;23.78;34.20
31595;BME280;18200;48.726;8.892;2023-11-19T18:52:49;96557.81;;;23.19;34.84
31595;BME280;18200;48.726;8.892;2023-11-19T18:56:49;96559.88;;;23.40;35.15
31595;BME280;18200;48.726;8.892;2023-11-19T19:00:50;96563.00;;;22.54;36.52
31595;BME280;18200;48.726;8.892;2023-11-19T19:04:50;96575.41;;;22.83;35.97
31595;BME280;18200;48.726;8.892;2023-11-19T19:08:51;96568.47;;;23.85;34.30
31595;BME280;18200;48.726;8.892;2023-11-19T19:12:51;96576.50;;;22.98;35.81
31595;BME280;18200;48.726;8.892;2023-11-19T19:16:54;96570.28;;;23.66;34.75
31595;BME280;18200;48.726;8.892;2023-11-19T19:20:56;96572.38;;;23.41;34.85
31595;BME280;18200;48.726;8.892;2023-11-19T19:24:56;96583.47;;;21.83;38.03
31595;BME280;18200;48.726;8.892;2023-11-19T19:28:57;96583.59;;;23.08;36.32
31595;BME280;18200;48.726;8.892;2023-11-19T19:32:57;96585.84;;;22.63;37.12
31595;BME280;18200;48.726;8.892;2023-11-19T19:36:57;96585.19;;;22.59;36.68
31595;BME280;18200;48.726;8.892;2023-11-19T19:40:58;96569.34;;;23.13;35.96
31595;BME280;18200;48.726;8.892;2023-11-19T19:45:05;96597.94;;;23.25;35.65
31595;BME280;18200;48.726;8.892;2023-11-19T19:49:05;96614.63;;;23.05;36.58
31595;BME280;18200;48.726;8.892;2023-11-19T19:53:08;96618.50;;;24.32;34.81
31595;BME280;18200;48.726;8.892;2023-11-19T19:57:10;96627.44;;;23.21;36.43
31595;BME280;18200;48.726;8.892;2023-11-19T20:01:11;96628.28;;;22.01;39.95
31595;BME280;18200;48.726;8.892;2023-11-19T20:05:12;96645.06;;;22.16;40.71
31595;BME280;18200;48.726;8.892;2023-11-19T20:09:13;96639.41;;;21.94;41.38
31595;BME280;18200;48.726;8.892;2023-11-19T20:13:13;96631.38;;;23.45;39.04
31595;BME280;18200;48.726;8.892;2023-11-19T20:17:15;96629.75;;;23.35;39.21
31595;BME280;18200;48.726;8.892;2023-11-19T20:21:15;96641.41;;;23.95;38.42
31595;BME280;18200;48.726;8.892;2023-11-19T20:25:16;96636.16;;;24.22;37.82
31595;BME280;18200;48.726;8.892;2023-11-19T20:29:17;96642.13;;;22.64;41.19
31595;BME280;18200;48.726;8.892;2023-11-19T20:33:17;96653.28;;;23.58;39.40
31595;BME280;18200;48.726;8.892;2023-11-19T20:37:17;96644.63;;;24.37;37.97
31595;BME280;18200;48.726;8.892;2023-11-19T20:41:19;96663.44;;;24.17;38.51
31595;BME280;18200;48.726;8.892;2023-11-19T20:45:19;96656.13;;;23.54;39.54
31595;BME280;18200;48.726;8.892;2023-11-19T20:49:22;96660.88;;;22.78;40.37
31595;BME280;18200;48.726;8.892;2023-11-19T20:53:22;96674.22;;;21.78;41.85
31595;BME280;18200;48.726;8.892;2023-11-19T20:57:22;96672.84;;;21.86;41.41
31595;BME280;18200;48.726;8.892;2023-11-19T21:01:23;96671.91;;;22.62;39.19
31595;BME280;18200;48.726;8.892;2023-11-19T21:05:23;96672.88;;;21.53;41.47
31595;BME280;18200;48.726;8.892;2023-11-19T21:09:24;96680.22;;;21.56;41.57
31595;BME280;18200;48.726;8.892;2023-11-19T21:13:24;96670.28;;;21.79;40.19
31595;BME280;18200;48.726;8.892;2023-11-19T21:17:24;96667.34;;;22.02;38.78
31595;BME280;18200;48.726;8.892;2023-11-19T21:21:25;96668.06;;;21.57;39.56
31595;BME280;18200;48.726;8.892;2023-11-19T21:25:25;96666.38;;;21.47;39.60
31595;BME280;18200;48.726;8.892;2023-11-19T21:29:26;96682.22;;;20.33;41.21